Time;durP1;ratioP1;P1;durP2;ratioP2;P2;SDS_P1;SDS_P2;PMS_P1;PMS_P2;Temp;Humidity;BMP_temperature;BMP_pressure;BME280_temperature;BME280_humidity;BME280_pressure;Samples;Min_cycle;Max_cycle;Signal;HPM_P1;HPM_P2
2022/06/10 00:00:41;;;;;;;15.45;10.85;;;;;;;19.26;88.37;99368.78;4446991;32;32893;-85
2022/06/10 00:03:14;;;;;;;14.15;10.02;;;;;;;19.42;87.47;99370.53;4453880;32;32841;-84
2022/06/10 00:05:48;;;;;;;18.90;11.75;;;;;;;19.57;85.84;99367.06;4452052;32;34421;-83
2022/06/10 00:08:22;;;;;;;13.80;10.18;;;;;;;18.71;91.00;99368.53;4441286;32;32826;-83
2022/06/10 00:10:50;;;;;;;15.95;10.18;;;;;;;19.07;89.02;99377.47;4454686;32;33613;-83
2022/06/10 00:13:20;;;;;;;15.32;10.52;;;;;;;19.14;88.73;99372.25;4452847;32;33347;-84
2022/06/10 00:15:48;;;;;;;13.60;9.90;;;;;;;19.23;87.86;99377.50;4452740;32;32397;-83
2022/06/10 00:18:16;;;;;;;15.00;10.57;;;;;;;19.39;86.53;99381.06;4455327;32;33425;-83
2022/06/10 00:20:46;;;;;;;13.52;10.93;;;;;;;18.44;91.90;99377.97;4437907;32;32048;-84
2022/06/10 00:23:13;;;;;;;14.52;11.05;;;;;;;18.84;91.17;99380.84;4452525;32;33805;-85
2022/06/10 00:25:41;;;;;;;16.15;10.05;;;;;;;19.07;88.99;99377.47;4469060;32;32395;-83
2022/06/10 00:28:09;;;;;;;15.75;10.40;;;;;;;19.18;87.30;99378.34;4453871;32;33148;-84
2022/06/10 00:30:38;;;;;;;13.52;9.88;;;;;;;19.41;85.81;99381.94;4438746;32;32650;-83
2022/06/10 00:33:06;;;;;;;12.70;9.90;;;;;;;18.63;89.59;99382.47;4453562;32;33475;-84
2022/06/10 00:35:35;;;;;;;13.82;10.60;;;;;;;18.94;89.14;99382.66;4453644;32;34427;-84
2022/06/10 00:38:03;;;;;;;14.25;10.85;;;;;;;18.67;90.63;99380.75;4453017;32;33636;-83
2022/06/10 00:40:36;;;;;;;14.70;10.18;;;;;;;18.20;92.68;99386.56;4450146;32;33857;-84
2022/06/10 00:43:03;;;;;;;13.27;10.35;;;;;;;18.95;89.36;99389.66;4439363;32;33038;-83
2022/06/10 00:46:00;;;;;;;12.77;10.70;;;;;;;18.99;88.29;99391.44;4455341;32;33864;-83
2022/06/10 00:48:32;;;;;;;17.70;11.57;;;;;;;18.48;91.31;99395.50;4466885;32;33218;-83
2022/06/10 00:51:10;;;;;;;15.27;10.80;;;;;;;17.88;95.10;99395.91;4452764;32;33711;-83
2022/06/10 00:53:38;;;;;;;16.35;11.48;;;;;;;19.01;88.32;99402.81;4449970;32;32898;-83
2022/06/10 00:56:13;;;;;;;14.00;11.07;;;;;;;19.18;87.05;99401.97;4439200;32;32646;-83
2022/06/10 00:58:48;;;;;;;14.20;10.93;;;;;;;18.82;88.60;99393.09;4442036;32;33599;-83
2022/06/10 01:01:22;;;;;;;15.25;11.05;;;;;;;18.78;89.27;99400.03;4451685;32;30892;-83
2022/06/10 01:03:50;;;;;;;18.30;11.38;;;;;;;19.24;86.32;99391.53;4454541;32;33833;-84
2022/06/10 01:06:18;;;;;;;19.00;12.30;;;;;;;18.49;91.46;99394.62;4450450;32;33842;-82
2022/06/10 01:08:47;;;;;;;15.82;12.85;;;;;;;17.88;94.14;99395.03;4442443;32;34054;-84
2022/06/10 01:11:37;;;;;;;17.60;13.20;;;;;;;17.79;97.45;99401.06;4438313;32;33966;-83
2022/06/10 01:14:32;;;;;;;14.70;11.73;;;;;;;18.14;94.97;99403.12;4449143;32;33973;-83
2022/06/10 01:17:12;;;;;;;14.75;11.60;;;;;;;18.39;90.46;99401.56;4453770;32;34532;-83
2022/06/10 01:19:39;;;;;;;16.85;12.10;;;;;;;18.53;90.58;99406.03;4465893;32;33239;-83
2022/06/10 01:22:18;;;;;;;17.25;12.45;;;;;;;18.84;88.78;99407.09;4451171;32;34367;-83
2022/06/10 01:25:04;;;;;;;18.42;11.77;;;;;;;18.53;91.41;99417.38;4440205;32;33063;-83
2022/06/10 01:27:49;;;;;;;15.27;11.30;;;;;;;19.03;87.77;99419.44;4453664;32;34537;-83
2022/06/10 01:30:23;;;;;;;;;;;;;;;19.12;86.28;99417.72;4469339;32;32080;-83
2022/06/10 01:33:15;;;;;;;15.82;12.00;;;;;;;18.83;87.59;99421.06;4439325;32;34086;-83
2022/06/10 01:35:56;;;;;;;20.62;12.52;;;;;;;18.57;89.49;99413.91;4469799;32;33616;-84
2022/06/10 01:38:43;;;;;;;16.48;12.93;;;;;;;18.65;88.98;99412.19;4441884;32;33636;-83
2022/06/10 01:41:34;;;;;;;15.80;12.93;;;;;;;18.64;89.61;99420.09;4439377;32;31766;-84
2022/06/10 01:44:27;;;;;;;15.75;11.95;;;;;;;18.65;88.81;99420.06;4440581;32;33536;-83
2022/06/10 01:47:10;;;;;;;16.25;12.80;;;;;;;18.89;87.48;99421.13;4449626;32;33759;-83
2022/06/10 01:49:45;;;;;;;15.68;12.82;;;;;;;18.26;89.59;99426.81;4437299;32;33796;-83
2022/06/10 01:52:42;;;;;;;16.07;12.13;;;;;;;18.72;88.27;99428.87;4443223;32;32383;-83
2022/06/10 01:55:21;;;;;;;18.50;13.18;;;;;;;18.65;88.63;99425.31;4446455;32;32177;-83
2022/06/10 01:57:58;;;;;;;17.12;13.65;;;;;;;18.12;90.71;99424.94;4454380;32;33938;-83
2022/06/10 02:00:31;;;;;;;18.10;13.40;;;;;;;18.45;90.56;99425.19;4452619;32;33695;-83
2022/06/10 02:03:01;;;;;;;16.62;13.40;;;;;;;18.47;90.04;99444.44;4452365;32;33420;-85
2022/06/10 02:05:34;;;;;;;18.10;13.77;;;;;;;18.51;89.33;99454.97;4467886;32;33758;-84
2022/06/10 02:08:11;;;;;;;18.70;14.13;;;;;;;18.94;86.93;99464.00;4438831;26;33292;-58
2022/06/10 02:10:44;;;;;;;17.60;13.73;;;;;;;19.11;86.02;99477.22;4421564;32;33791;-58
2022/06/10 02:13:19;;;;;;;17.70;14.43;;;;;;;18.28;90.28;99472.28;4425875;32;32914;-58
2022/06/10 02:15:52;;;;;;;18.70;13.38;;;;;;;17.92;93.37;99475.44;4420456;32;33814;-58
2022/06/10 02:18:30;;;;;;;18.23;14.32;;;;;;;18.63;89.26;99470.78;4425413;32;33828;-58
2022/06/10 02:21:01;;;;;;;19.73;14.73;;;;;;;18.49;90.82;99468.06;4440989;32;34739;-58
2022/06/10 02:23:33;;;;;;;20.15;15.18;;;;;;;18.71;88.57;99476.94;4425425;32;33410;-58
2022/06/10 02:26:03;;;;;;;19.98;15.57;;;;;;;18.48;90.77;99487.28;4431103;32;33883;-58
2022/06/10 02:28:39;;;;;;;19.00;14.45;;;;;;;18.61;90.07;99494.38;4443201;32;33961;-58
2022/06/10 02:31:16;;;;;;;19.73;14.63;;;;;;;18.73;89.19;99511.06;4422011;32;34583;-58
2022/06/10 02:33:44;;;;;;;18.08;14.70;;;;;;;18.91;86.66;99519.13;4429676;32;32150;-58
2022/06/10 02:36:17;;;;;;;25.62;15.07;;;;;;;18.94;86.36;99524.38;4424135;32;34765;-58
2022/06/10 02:39:08;;;;;;;21.45;15.35;;;;;;;18.52;89.55;99524.91;4420197;32;33957;-58
2022/06/10 02:42:06;;;;;;;19.00;15.32;;;;;;;19.28;85.68;99529.84;4424911;32;32751;-58
2022/06/10 02:44:44;;;;;;;22.08;15.85;;;;;;;18.93;89.38;99533.12;4432951;32;33308;-58
2022/06/10 02:47:26;;;;;;;21.87;16.87;;;;;;;18.61;91.79;99535.47;4425278;32;32044;-58
2022/06/10 02:49:54;;;;;;;21.52;17.45;;;;;;;18.54;91.68;99534.53;4439048;32;33955;-58
2022/06/10 02:52:23;;;;;;;24.73;17.40;;;;;;;18.27;93.08;99533.47;4430981;32;34094;-58
2022/06/10 02:54:50;;;;;;;21.45;16.48;;;;;;;18.89;89.92;99535.69;4432836;32;34344;-58
2022/06/10 03:01:11;;;;;;;22.80;16.40;;;;;;;19.07;88.28;99540.22;4440442;32;33842;-58
2022/06/10 03:03:15;;;;;;;24.02;17.70;;;;;;;18.74;88.43;99552.22;4421275;32;34454;-58
2022/06/10 03:05:55;;;;;;;20.92;16.40;;;;;;;18.41;92.63;99549.31;4433490;32;33811;-58
2022/06/10 03:08:33;;;;;;;22.20;17.52;;;;;;;18.09;95.02;99549.00;4419834;32;34686;-58
2022/06/10 03:11:34;;;;;;;27.73;19.33;;;;;;;18.26;94.63;99539.53;4427630;32;33904;-58
2022/06/10 03:14:12;;;;;;;26.02;19.73;;;;;;;17.20;100.00;99550.50;4428378;32;33779;-58
2022/06/10 03:17:21;;;;;;;23.95;18.08;;;;;;;17.40;100.00;99543.81;4414714;32;33905;-58
2022/06/10 03:20:09;;;;;;;25.23;18.77;;;;;;;17.74;99.51;99538.09;4393856;32;32320;-58
2022/06/10 03:22:45;;;;;;;24.05;18.42;;;;;;;18.10;94.85;99532.41;4407927;32;34038;-58
2022/06/10 03:25:43;;;;;;;21.20;16.17;;;;;;;18.12;95.84;99535.94;4432179;32;33932;-58
2022/06/10 03:28:39;;;;;;;25.80;18.35;;;;;;;18.47;92.32;99538.00;4402850;32;32049;-58
2022/06/10 03:31:13;;;;;;;25.37;18.33;;;;;;;18.38;94.01;99543.16;4423525;32;34802;-58
2022/06/10 03:33:45;;;;;;;25.63;19.47;;;;;;;18.58;92.86;99548.56;4413252;32;34543;-58
2022/06/10 03:36:16;;;;;;;26.62;18.62;;;;;;;18.51;93.32;99542.41;4422847;32;33606;-58
2022/06/10 03:38:46;;;;;;;25.88;19.37;;;;;;;18.27;95.08;99546.56;4439774;32;33302;-58
2022/06/10 03:41:32;;;;;;;26.87;21.33;;;;;;;18.45;93.76;99555.47;4417856;32;33058;-58
2022/06/10 03:44:03;;;;;;;27.67;21.75;;;;;;;17.45;100.00;99556.94;4414396;32;33957;-58
2022/06/10 03:46:32;;;;;;;28.80;22.02;;;;;;;17.49;100.00;99556.12;4434550;32;34918;-58
2022/06/10 03:49:04;;;;;;;28.95;21.37;;;;;;;17.26;100.00;99571.53;4416000;32;33811;-58
2022/06/10 03:51:32;;;;;;;30.60;22.58;;;;;;;18.12;98.27;99567.37;4409201;32;32515;-58
2022/06/10 03:53:59;;;;;;;27.35;20.65;;;;;;;17.58;100.00;99568.47;4431681;32;33647;-58
2022/06/10 03:56:27;;;;;;;27.02;19.95;;;;;;;18.02;100.00;99565.50;4420175;32;34561;-58
2022/06/10 03:58:54;;;;;;;25.90;20.45;;;;;;;18.35;95.08;99558.84;4420925;32;33150;-58
2022/06/10 04:01:22;;;;;;;25.83;20.88;;;;;;;17.87;97.21;99561.00;4430786;32;33747;-58
2022/06/10 04:03:50;;;;;;;28.45;20.48;;;;;;;18.30;95.26;99571.06;4429498;32;33927;-58
2022/06/10 04:06:18;;;;;;;27.40;21.15;;;;;;;17.87;98.21;99577.59;4427644;32;34376;-58
2022/06/10 04:09:05;;;;;;;24.00;20.00;;;;;;;18.11;96.96;99580.47;4436199;32;33324;-58
2022/06/10 04:11:33;;;;;;;27.77;20.42;;;;;;;17.90;97.19;99576.72;4417131;32;32435;-58
2022/06/10 04:14:00;;;;;;;25.17;19.27;;;;;;;18.20;96.11;99591.94;4430081;32;33625;-58
2022/06/10 04:16:29;;;;;;;24.50;19.83;;;;;;;18.19;97.77;99584.91;4432292;32;34822;-58
2022/06/10 04:18:57;;;;;;;22.50;18.20;;;;;;;18.42;94.16;99577.28;4435643;32;32023;-58
2022/06/10 04:21:43;;;;;;;24.33;18.80;;;;;;;18.80;91.08;99570.66;4435843;32;33730;-58
2022/06/10 04:24:10;;;;;;;24.40;18.65;;;;;;;18.22;96.42;99586.69;4437393;32;33792;-58
2022/06/10 04:26:38;;;;;;;21.65;16.37;;;;;;;18.24;94.54;99583.22;4421445;32;32534;-58
2022/06/10 04:29:06;;;;;;;20.98;17.23;;;;;;;18.65;91.92;99590.59;4432903;32;33429;-58
2022/06/10 04:31:33;;;;;;;21.87;17.05;;;;;;;17.99;95.66;99594.31;4435939;32;33718;-58
2022/06/10 04:34:01;;;;;;;18.77;15.40;;;;;;;18.00;96.46;99593.44;4433036;32;34060;-58
2022/06/10 04:36:29;;;;;;;22.60;15.93;;;;;;;18.39;92.73;99598.25;4435556;32;34036;-58
2022/06/10 04:38:57;;;;;;;17.87;14.48;;;;;;;18.50;91.96;99600.06;4425123;32;33185;-58
2022/06/10 04:41:24;;;;;;;17.58;14.27;;;;;;;18.63;90.52;99592.31;4438655;32;33841;-58
2022/06/10 04:43:52;;;;;;;17.83;13.82;;;;;;;18.23;92.09;99601.56;4438445;32;34767;-58
2022/06/10 04:46:24;;;;;;;19.75;14.02;;;;;;;18.73;90.46;99597.66;4427858;32;33854;-58
2022/06/10 04:48:52;;;;;;;20.23;14.40;;;;;;;19.10;87.53;99592.72;4442495;32;33113;-58
2022/06/10 04:51:20;;;;;;;17.75;15.05;;;;;;;18.03;92.91;99603.97;4424909;32;32442;-58
2022/06/10 04:53:47;;;;;;;18.65;14.68;;;;;;;18.19;93.38;99600.62;4426850;32;34408;-58
2022/06/10 04:56:15;;;;;;;18.05;14.30;;;;;;;18.45;92.06;99602.66;4439848;32;33850;-58
2022/06/10 04:58:43;;;;;;;18.67;12.88;;;;;;;18.77;89.67;99599.44;4443092;32;33470;-58
2022/06/10 05:01:11;;;;;;;19.12;13.88;;;;;;;18.58;91.22;99604.53;4435653;32;33601;-58
2022/06/10 05:03:39;;;;;;;21.92;13.43;;;;;;;18.45;92.65;99608.78;4437684;32;33638;-58
2022/06/10 05:06:07;;;;;;;14.87;12.30;;;;;;;19.15;88.08;99609.41;4437286;32;33928;-58
2022/06/10 05:08:35;;;;;;;14.87;11.90;;;;;;;19.00;88.95;99608.41;4448860;32;33534;-58
2022/06/10 05:11:03;;;;;;;14.20;11.60;;;;;;;18.83;90.67;99615.25;4447789;32;34765;-59
2022/06/10 05:13:30;;;;;;;14.98;12.05;;;;;;;18.70;89.98;99618.63;4453439;32;34377;-59
2022/06/10 05:15:58;;;;;;;17.83;12.20;;;;;;;18.93;89.42;99619.75;4447079;32;33878;-59
2022/06/10 05:18:26;;;;;;;14.60;11.80;;;;;;;18.21;94.52;99625.13;4453945;32;33916;-59
2022/06/10 05:20:55;;;;;;;12.77;10.93;;;;;;;18.30;95.05;99620.87;4452130;32;33671;-59
2022/06/10 05:23:24;;;;;;;14.02;11.30;;;;;;;19.14;88.44;99620.75;4453145;32;34580;-59
2022/06/10 05:25:52;;;;;;;18.45;11.77;;;;;;;18.46;91.43;99630.63;4448677;32;34676;-58
2022/06/10 05:28:20;;;;;;;15.27;11.50;;;;;;;18.96;90.34;99627.63;4449166;32;33412;-59
2022/06/10 05:30:48;;;;;;;14.25;10.93;;;;;;;19.38;86.11;99631.44;4449108;32;34399;-60
2022/06/10 05:33:17;;;;;;;13.90;11.07;;;;;;;19.75;84.40;99641.31;4450601;32;34586;-59
2022/06/10 05:35:45;;;;;;;15.95;10.60;;;;;;;19.86;83.67;99638.72;4454779;32;33937;-59
2022/06/10 05:38:14;;;;;;;15.95;10.85;;;;;;;19.75;83.58;99642.19;4439125;32;32806;-60
2022/06/10 05:40:42;;;;;;;13.50;10.50;;;;;;;19.87;83.81;99649.25;4452749;32;33963;-59
2022/06/10 05:43:10;;;;;;;16.55;11.35;;;;;;;19.69;84.75;99647.38;4451745;32;33598;-59
2022/06/10 05:45:41;;;;;;;15.52;10.05;;;;;;;19.55;86.37;99654.31;4443716;32;33837;-59
2022/06/10 05:48:11;;;;;;;12.30;10.38;;;;;;;20.09;83.03;99651.94;4452978;32;33405;-59
2022/06/10 05:50:41;;;;;;;13.88;10.65;;;;;;;19.34;85.87;99644.53;4447398;32;34644;-58
2022/06/10 05:53:12;;;;;;;16.73;11.88;;;;;;;19.54;85.55;99655.16;4454806;32;32995;-58
2022/06/10 05:55:40;;;;;;;16.62;11.98;;;;;;;19.24;88.48;99656.75;4453292;32;32727;-59
2022/06/10 05:58:08;;;;;;;19.65;12.18;;;;;;;19.27;88.16;99658.50;4448985;32;34200;-58
2022/06/10 06:00:36;;;;;;;16.10;12.25;;;;;;;19.47;87.29;99661.25;4451354;32;34007;-58
2022/06/10 06:03:04;;;;;;;15.77;11.70;;;;;;;19.79;85.14;99657.09;4453764;32;33934;-59
2022/06/10 06:05:33;;;;;;;15.18;11.80;;;;;;;19.74;84.55;99671.06;4453338;32;33648;-59
2022/06/10 06:08:01;;;;;;;16.65;12.50;;;;;;;20.04;83.96;99665.09;4448134;32;34175;-58
2022/06/10 06:10:29;;;;;;;13.73;11.57;;;;;;;20.00;83.33;99674.72;4450081;32;34662;-58
2022/06/10 06:12:58;;;;;;;17.83;11.73;;;;;;;20.27;81.27;99673.06;4438705;32;33297;-58
2022/06/10 06:15:25;;;;;;;16.70;10.75;;;;;;;20.51;80.58;99682.78;4452124;32;34005;-59
2022/06/10 06:17:53;;;;;;;15.10;11.12;;;;;;;20.09;81.24;99681.78;4450482;32;33542;-59
2022/06/10 06:20:22;;;;;;;14.98;10.25;;;;;;;20.18;80.64;99684.41;4440318;32;33984;-59
2022/06/10 06:22:50;;;;;;;15.52;11.20;;;;;;;20.58;80.84;99681.06;4452485;32;34010;-59
2022/06/10 06:25:19;;;;;;;13.80;10.63;;;;;;;20.03;83.03;99684.38;4425639;32;33769;-59
2022/06/10 06:27:48;;;;;;;14.23;9.85;;;;;;;19.79;84.59;99685.12;4438765;32;32965;-59
2022/06/10 06:30:36;;;;;;;12.02;10.00;;;;;;;20.39;81.74;99688.00;4454303;32;34553;-59
2022/06/10 06:33:06;;;;;;;14.77;9.20;;;;;;;20.51;80.76;99682.78;4447565;32;33665;-59
2022/06/10 06:35:36;;;;;;;14.25;9.68;;;;;;;20.02;84.34;99682.63;4434408;32;34371;-58
2022/06/10 06:38:04;;;;;;;13.18;9.27;;;;;;;19.91;83.78;99677.28;4432389;32;33936;-58
2022/06/10 06:40:32;;;;;;;16.30;9.18;;;;;;;20.09;83.07;99696.66;4447282;32;33789;-58
2022/06/10 06:43:00;;;;;;;14.57;9.73;;;;;;;20.05;83.38;99693.16;4439875;32;33648;-59
2022/06/10 06:45:28;;;;;;;11.85;10.02;;;;;;;19.64;86.24;99694.66;4452948;32;34594;-58
2022/06/10 06:48:03;;;;;;;15.05;9.50;;;;;;;20.29;86.10;99702.00;4440227;32;33336;-59
2022/06/10 06:50:33;;;;;;;13.77;10.10;;;;;;;20.37;83.75;99705.53;4450103;32;34011;-58
2022/06/10 06:53:01;;;;;;;13.02;9.95;;;;;;;20.20;85.20;99703.75;4438192;32;33085;-59
2022/06/10 06:55:35;;;;;;;12.13;9.50;;;;;;;20.28;83.46;99694.97;4443913;32;33714;-58
2022/06/10 06:58:05;;;;;;;11.82;9.82;;;;;;;20.43;84.14;99701.16;4446551;32;32374;-58
2022/06/10 07:00:32;;;;;;;14.35;10.70;;;;;;;20.33;83.62;99701.16;4427620;32;34041;-59
2022/06/10 07:03:00;;;;;;;12.95;10.50;;;;;;;20.07;85.90;99695.78;4446490;32;33531;-58
2022/06/10 07:05:28;;;;;;;15.25;10.20;;;;;;;20.41;84.69;99702.91;4445507;32;35475;-58
2022/06/10 07:07:55;;;;;;;13.98;9.82;;;;;;;20.17;84.86;99703.72;4443514;32;33690;-58
2022/06/10 07:10:23;;;;;;;11.75;8.50;;;;;;;20.65;84.41;99700.38;4448911;32;33769;-59
2022/06/10 07:12:51;;;;;;;12.05;8.32;;;;;;;21.59;79.40;99701.31;4446227;32;32403;-59
2022/06/10 07:15:19;;;;;;;11.88;8.98;;;;;;;21.66;77.25;99703.06;4435625;32;32293;-60
2022/06/10 07:17:47;;;;;;;11.63;8.40;;;;;;;21.34;78.71;99703.97;4434975;32;34068;-59
2022/06/10 07:20:37;;;;;;;8.82;7.40;;;;;;;21.68;79.81;99713.63;4431821;32;33069;-59
2022/06/10 07:23:05;;;;;;;12.80;6.62;;;;;;;22.45;74.91;99701.06;4437513;32;33784;-59
2022/06/10 07:25:33;;;;;;;12.93;7.75;;;;;;;22.65;72.12;99710.66;4445157;32;33958;-59
2022/06/10 07:28:01;;;;;;;9.38;7.40;;;;;;;23.03;71.11;99710.44;4446478;32;33147;-59
2022/06/10 07:30:31;;;;;;;8.55;7.03;;;;;;;21.69;75.71;99700.44;4453232;32;33603;-59
2022/06/10 07:32:59;;;;;;;11.40;7.55;;;;;;;22.56;72.31;99701.91;4452133;32;33120;-59
2022/06/10 07:35:27;;;;;;;10.90;7.35;;;;;;;23.00;71.72;99701.59;4448676;32;33623;-58
2022/06/10 07:37:55;;;;;;;12.30;7.37;;;;;;;23.24;70.22;99701.44;4450748;32;33418;-59
2022/06/10 07:43:39;;;;;;;8.35;4.22;;;;;;;24.07;67.04;99698.00;4450908;32;33556;-60
2022/06/10 07:46:09;;;;;;;7.95;3.87;;;;;;;24.37;61.46;99698.50;4448987;32;34413;-60
2022/06/10 07:48:36;;;;;;;9.05;3.40;;;;;;;24.20;62.14;99708.41;4438437;32;33345;-59
2022/06/10 07:51:04;;;;;;;6.45;3.83;;;;;;;24.69;58.32;99706.03;4445631;32;33620;-60
2022/06/10 07:53:32;;;;;;;6.45;3.60;;;;;;;24.59;59.26;99704.41;4444346;32;34606;-59
2022/06/10 07:56:00;;;;;;;6.03;3.53;;;;;;;24.74;58.22;99700.66;4447531;32;34228;-59
2022/06/10 07:58:29;;;;;;;6.97;5.30;;;;;;;24.71;57.73;99706.00;4444824;32;34592;-59
2022/06/10 08:00:58;;;;;;;7.62;5.80;;;;;;;24.82;62.29;99712.03;4425400;32;34056;-60
2022/06/10 08:03:26;;;;;;;8.05;5.00;;;;;;;25.00;63.01;99715.31;4447688;32;33404;-60
2022/06/10 08:05:54;;;;;;;9.95;4.47;;;;;;;24.93;62.81;99720.66;4448445;32;33820;-60
2022/06/10 08:08:22;;;;;;;9.45;4.68;;;;;;;25.09;59.36;99709.81;4439058;32;32133;-60
2022/06/10 08:10:50;;;;;;;5.60;4.10;;;;;;;25.45;59.67;99712.81;4423799;32;34731;-60
2022/06/10 08:13:18;;;;;;;7.87;5.05;;;;;;;25.25;57.54;99714.03;4440622;32;33546;-59
2022/06/10 08:15:48;;;;;;;6.47;3.80;;;;;;;25.22;58.04;99714.06;4438211;32;34409;-60
2022/06/10 08:18:19;;;;;;;10.40;3.72;;;;;;;25.19;54.27;99715.84;4428461;32;33438;-60
2022/06/10 08:23:34;;;;;;;5.60;3.60;;;;;;;24.87;54.43;99720.75;4422861;32;33379;-59
2022/06/10 08:26:05;;;;;;;6.05;3.90;;;;;;;25.07;54.73;99723.12;4438592;32;34611;-60
2022/06/10 08:28:33;;;;;;;8.43;3.70;;;;;;;24.56;57.23;99735.34;4437372;32;33993;-60
2022/06/10 08:31:01;;;;;;;7.80;4.30;;;;;;;25.02;54.24;99729.41;4435343;32;34439;-61
2022/06/10 08:33:29;;;;;;;5.82;4.03;;;;;;;24.95;55.01;99723.31;4435077;32;33653;-60
2022/06/10 08:35:59;;;;;;;5.75;4.20;;;;;;;25.21;56.02;99728.19;4432422;32;33629;-59
2022/06/10 08:38:27;;;;;;;10.52;5.55;;;;;;;25.12;57.09;99728.34;4426490;32;33453;-59
2022/06/10 08:41:06;;;;;;;8.23;5.10;;;;;;;25.08;60.14;99721.34;4422525;32;33829;-59
2022/06/10 08:43:56;;;;;;;9.48;6.05;;;;;;;25.02;59.80;99735.56;4434371;32;34444;-60
2022/06/10 08:46:42;;;;;;;12.23;5.22;;;;;;;24.73;60.87;99738.66;4436079;32;34356;-60
2022/06/10 08:49:38;;;;;;;8.07;5.32;;;;;;;24.93;60.38;99746.28;4436998;32;34387;-60
2022/06/10 08:52:31;;;;;;;9.00;5.90;;;;;;;24.99;59.64;99740.03;4425465;32;34085;-60
2022/06/10 08:55:13;;;;;;;9.88;6.10;;;;;;;24.63;60.89;99737.03;4420488;32;34741;-60
2022/06/10 08:57:47;;;;;;;9.65;6.40;;;;;;;24.86;61.21;99740.22;4422438;32;33910;-60
2022/06/10 09:00:22;;;;;;;8.60;5.53;;;;;;;24.79;62.20;99741.22;4437308;32;33704;-60
2022/06/10 09:03:15;;;;;;;8.95;5.72;;;;;;;24.80;61.62;99745.62;4422860;32;34317;-60
2022/06/10 09:05:50;;;;;;;9.07;6.12;;;;;;;24.70;61.26;99751.91;4436805;32;33703;-60
2022/06/10 09:08:24;;;;;;;9.20;6.43;;;;;;;24.74;62.49;99750.97;4455097;32;33949;-60
2022/06/10 09:11:25;;;;;;;9.43;7.10;;;;;;;24.81;63.27;99746.50;4426477;32;32868;-59
2022/06/10 09:14:22;;;;;;;8.77;6.87;;;;;;;24.66;63.42;99753.72;4440927;32;33668;-60
2022/06/10 09:17:15;;;;;;;9.98;7.37;;;;;;;24.58;63.57;99749.44;4450132;32;33778;-59
2022/06/10 09:20:21;;;;;;;10.85;7.53;;;;;;;24.06;67.38;99751.78;4432596;32;34301;-59
2022/06/10 09:23:02;;;;;;;8.90;7.40;;;;;;;24.04;67.43;99747.41;4441436;32;34209;-60
2022/06/10 09:25:43;;;;;;;10.80;7.28;;;;;;;24.33;68.07;99745.28;4432134;32;34546;-59
2022/06/10 09:28:11;;;;;;;13.18;7.45;;;;;;;24.69;65.70;99747.53;4450320;32;33896;-60
2022/06/10 09:30:43;;;;;;;13.90;8.60;;;;;;;24.31;67.34;99740.94;4443173;32;33867;-60
2022/06/10 09:33:28;;;;;;;15.90;7.95;;;;;;;24.02;67.54;99750.06;4458462;32;33050;-59
2022/06/10 09:36:11;;;;;;;11.82;8.15;;;;;;;23.84;67.76;99755.59;4455327;32;33531;-59
2022/06/10 09:38:50;;;;;;;12.98;6.70;;;;;;;23.86;68.87;99749.37;4450281;32;33967;-59
2022/06/10 09:41:26;;;;;;;9.18;6.47;;;;;;;24.42;66.81;99749.63;4450076;32;33998;-59
2022/06/10 09:44:05;;;;;;;10.70;6.25;;;;;;;25.47;62.87;99748.13;4439456;32;33665;-59
2022/06/10 09:46:44;;;;;;;10.63;6.22;;;;;;;25.47;62.64;99748.13;4427643;32;33956;-60
2022/06/10 09:49:31;;;;;;;10.02;5.95;;;;;;;26.07;61.00;99749.72;4441957;32;34450;-59
2022/06/10 09:52:11;;;;;;;8.73;6.37;;;;;;;26.37;59.06;99750.91;4453024;32;34678;-59
2022/06/10 09:55:01;;;;;;;9.73;6.15;;;;;;;26.48;60.40;99756.87;4447312;32;33671;-60
2022/06/10 09:58:04;;;;;;;10.48;5.30;;;;;;;26.46;57.77;99761.34;4451858;32;34454;-59
2022/06/10 10:00:52;;;;;;;9.55;5.87;;;;;;;26.23;57.84;99752.94;4402740;32;34096;-59
2022/06/10 10:04:02;;;;;;;9.55;6.20;;;;;;;26.20;59.27;99760.97;4443301;32;33652;-59
2022/06/10 10:06:49;;;;;;;10.75;5.97;;;;;;;26.45;59.41;99756.91;4427012;32;32829;-59
2022/06/10 10:09:36;;;;;;;8.38;5.55;;;;;;;26.41;57.38;99755.22;4437489;32;34622;-59
2022/06/10 10:12:06;;;;;;;9.38;5.82;;;;;;;26.53;57.09;99756.75;4461107;32;33908;-59
2022/06/10 10:14:53;;;;;;;8.35;5.78;;;;;;;26.61;58.88;99757.47;4456310;32;34120;-60
2022/06/10 10:17:23;;;;;;;10.60;5.65;;;;;;;26.91;56.67;99759.50;4461727;32;33326;-59
2022/06/10 10:20:06;;;;;;;9.52;5.12;;;;;;;26.96;54.78;99768.25;4459167;32;34694;-59
2022/06/10 10:22:55;;;;;;;8.90;5.55;;;;;;;26.63;57.40;99762.78;4432334;32;34259;-59
2022/06/10 10:25:25;;;;;;;8.27;5.90;;;;;;;26.25;59.31;99754.69;4458116;32;33949;-60
2022/06/10 10:27:54;;;;;;;8.43;5.43;;;;;;;26.40;58.33;99768.53;4433315;32;33255;-59
2022/06/10 10:30:21;;;;;;;8.30;5.80;;;;;;;26.36;58.65;99762.41;4448710;32;33857;-59
2022/06/10 10:33:04;;;;;;;7.60;5.75;;;;;;;26.70;57.19;99758.22;4464430;32;34506;-59
2022/06/10 10:35:56;;;;;;;11.43;6.87;;;;;;;26.68;58.30;99761.75;4454830;32;34777;-60
2022/06/10 10:38:44;;;;;;;10.35;6.30;;;;;;;26.73;59.85;99761.66;4449796;32;33668;-59
2022/06/10 10:41:21;;;;;;;8.07;6.25;;;;;;;25.65;62.36;99762.84;4442619;32;34701;-59
2022/06/10 10:43:51;;;;;;;10.55;5.68;;;;;;;25.24;62.63;99764.41;4462074;32;34680;-60
2022/06/10 10:46:31;;;;;;;9.48;6.10;;;;;;;26.37;58.74;99752.69;4438732;32;33199;-59
2022/06/10 10:49:04;;;;;;;10.10;5.45;;;;;;;26.22;60.82;99759.19;4452839;32;33659;-59
2022/06/10 10:51:40;;;;;;;8.93;5.37;;;;;;;26.51;56.75;99761.22;4438825;32;33981;-60
2022/06/10 10:54:30;;;;;;;7.65;5.60;;;;;;;26.52;58.41;99762.09;4447929;32;34687;-59
2022/06/10 10:56:59;;;;;;;8.25;6.07;;;;;;;26.36;59.27;99770.38;4443466;32;33643;-59
2022/06/10 10:59:34;;;;;;;8.68;6.05;;;;;;;26.34;60.01;99758.91;4421775;32;31587;-59
2022/06/10 11:02:39;;;;;;;7.53;6.10;;;;;;;26.52;59.66;99762.09;4433663;32;34457;-59
2022/06/10 11:05:24;;;;;;;10.38;5.65;;;;;;;26.18;60.60;99753.03;4442203;32;33967;-60
2022/06/10 11:08:13;;;;;;;8.25;5.90;;;;;;;25.93;60.54;99747.34;4441276;32;33865;-60
2022/06/10 11:11:03;;;;;;;6.60;5.40;;;;;;;26.27;59.24;99752.00;4451051;32;33350;-59
2022/06/10 11:13:34;;;;;;;10.48;5.22;;;;;;;25.92;60.56;99750.88;4400283;32;34664;-59
2022/06/10 11:16:26;;;;;;;11.23;6.53;;;;;;;26.44;56.91;99741.91;4447320;32;33501;-60
2022/06/10 11:19:02;;;;;;;10.30;5.22;;;;;;;25.72;60.16;99747.72;4444679;32;33862;-60
2022/06/10 11:21:29;;;;;;;10.73;5.90;;;;;;;26.65;57.92;99758.31;4434846;32;32234;-59
2022/06/10 11:23:58;;;;;;;9.63;5.22;;;;;;;26.73;59.38;99756.34;4449343;32;34654;-60
2022/06/10 11:26:26;;;;;;;8.10;5.37;;;;;;;26.05;59.12;99757.72;4449520;32;32789;-59
2022/06/10 11:29:01;;;;;;;8.15;4.72;;;;;;;26.21;60.08;99746.78;4438256;32;34113;-59
2022/06/10 11:31:38;;;;;;;8.00;5.00;;;;;;;26.79;56.45;99734.97;4449809;32;34146;-60
2022/06/10 11:34:15;;;;;;;7.90;5.00;;;;;;;26.83;57.90;99743.72;4435391;32;34636;-59
2022/06/10 11:36:49;;;;;;;10.95;5.37;;;;;;;26.84;56.74;99735.72;4434396;32;33813;-60
2022/06/10 11:39:31;;;;;;;;;;;;;;;27.09;56.39;99745.78;4457821;32;34015;-59
2022/06/10 11:42:07;;;;;;;7.93;4.95;;;;;;;27.04;56.42;99731.72;4437258;32;33325;-60
2022/06/10 11:45:00;;;;;;;9.00;4.95;;;;;;;27.05;55.00;99741.47;4439772;32;33583;-60
2022/06/10 11:47:30;;;;;;;7.62;5.10;;;;;;;26.84;55.60;99738.38;4441326;32;34674;-60
2022/06/10 11:50:06;;;;;;;8.50;4.47;;;;;;;27.32;55.53;99728.44;4450436;32;33906;-60
2022/06/10 11:52:37;;;;;;;8.15;5.55;;;;;;;27.41;53.05;99729.06;4443880;32;33097;-60
2022/06/10 11:55:14;;;;;;;10.05;5.78;;;;;;;27.31;56.00;99737.31;4440060;32;34756;-60
2022/06/10 12:01:04;;;;;;;7.62;5.03;;;;;;;27.59;54.78;99721.53;4438339;32;33575;-60
2022/06/10 12:03:53;;;;;;;7.40;4.87;;;;;;;26.94;56.55;99727.53;4441060;32;34132;-60
2022/06/10 12:06:29;;;;;;;7.28;5.10;;;;;;;27.45;53.54;99713.91;4439473;32;34489;-60
2022/06/10 12:09:04;;;;;;;9.15;4.97;;;;;;;26.89;55.96;99709.06;4428271;32;34072;-60
2022/06/10 12:11:38;;;;;;;7.72;4.68;;;;;;;27.34;53.33;99715.97;4451692;32;34384;-60